createdAt,value
2019-04-25T00:00:51.409Z,62327.79
2019-04-25T00:03:38.327Z,62325.83
2019-04-25T00:06:26.252Z,62319.46
2019-04-25T00:08:53.486Z,62313.10
2019-04-25T00:19:57.968Z,62305.66
2019-04-25T00:22:44.850Z,62316.08
2019-04-25T00:25:31.437Z,62308.50
2019-04-25T00:30:52.314Z,62299.62
2019-04-25T00:33:21.522Z,62296.37
2019-04-25T00:35:48.158Z,62294.89
2019-04-25T00:38:14.427Z,62297.27
2019-04-25T00:40:42.731Z,62293.32
2019-04-25T00:43:08.963Z,62288.59
2019-04-25T00:45:35.212Z,62293.74
2019-04-25T00:48:02.425Z,62291.71
2019-04-25T00:50:29.625Z,62289.88
2019-04-25T00:52:55.872Z,62292.64
2019-04-25T00:55:28.626Z,62287.02
2019-04-25T01:00:48.995Z,62278.91
2019-04-25T01:03:35.300Z,62278.02
2019-04-25T01:06:03.380Z,62270.92
2019-04-25T01:08:29.710Z,62272.75
2019-04-25T01:10:56.036Z,62276.00
2019-04-25T01:13:22.397Z,62274.32
2019-04-25T01:18:55.971Z,62281.62
2019-04-25T01:21:22.208Z,62277.96
2019-04-25T01:23:49.356Z,62275.93
2019-04-25T01:26:16.725Z,62275.67
2019-04-25T01:28:43.938Z,62272.95
2019-04-25T01:33:58.822Z,62275.80
2019-04-25T01:36:44.851Z,62276.54
2019-04-25T01:39:26.259Z,62274.71
2019-04-25T01:47:04.193Z,62277.15
2019-04-25T01:49:31.843Z,62268.76
2019-04-25T01:51:58.622Z,62268.82
2019-04-25T01:56:55.921Z,62257.58
2019-04-25T01:59:23.721Z,62249.46
2019-04-25T02:01:50.950Z,62246.36
2019-04-25T02:04:18.208Z,62251.30
2019-04-25T02:06:44.593Z,62247.84
2019-04-25T02:12:05.076Z,62248.65
2019-04-25T02:14:31.354Z,62251.92
2019-04-25T02:16:58.461Z,62241.42
2019-04-25T02:19:25.923Z,62243.50
2019-04-25T02:21:54.412Z,62242.44
2019-04-25T02:24:20.920Z,62240.61
2019-04-25T02:26:47.164Z,62243.72
2019-04-25T02:29:13.730Z,62236.27
2019-04-25T02:31:41.617Z,62233.89
2019-04-25T02:34:08.780Z,62225.51
2019-04-25T02:36:35.231Z,62226.93
2019-04-25T02:39:04.617Z,62220.91
2019-04-25T02:41:29.711Z,62219.15
2019-04-25T02:43:59.915Z,62218.00
2019-04-25T02:46:44.862Z,62233.29
2019-04-25T02:49:38.664Z,62220.04
2019-04-25T02:52:19.042Z,62211.37
2019-04-25T02:54:45.274Z,62224.22
2019-04-25T02:57:11.555Z,62224.57
2019-04-25T02:59:37.808Z,62214.97
2019-04-25T03:05:01.332Z,62212.46
2019-04-25T03:07:28.880Z,62222.13
2019-04-25T03:09:55.283Z,62239.58
2019-04-25T03:12:30.727Z,62243.86
2019-04-25T03:14:49.737Z,62243.79
2019-04-25T03:17:37.534Z,62250.48
2019-04-25T03:28:48.324Z,62266.25
2019-04-25T03:31:22.066Z,62269.44
2019-04-25T03:33:45.055Z,62275.73
2019-04-25T03:36:10.921Z,62284.26
2019-04-25T03:38:37.279Z,62291.49
2019-04-25T03:41:04.822Z,62298.55
2019-04-25T03:43:33.243Z,62305.25
2019-04-25T03:45:59.892Z,62314.12
2019-04-25T03:48:26.638Z,62312.03
2019-04-25T03:50:54.026Z,62322.39
2019-04-25T03:53:21.153Z,62330.17
2019-04-25T03:55:47.405Z,62336.47
2019-04-25T03:58:14.611Z,62344.80
2019-04-25T04:03:38.639Z,62361.80
2019-04-25T04:06:07.312Z,62363.70
2019-04-25T04:08:34.292Z,62373.31
2019-04-25T04:11:01.263Z,62382.00
2019-04-25T04:13:27.523Z,62391.75
2019-04-25T04:24:14.111Z,62435.34
2019-04-25T04:26:41.005Z,62449.11
2019-04-25T04:29:07.796Z,62462.35
2019-04-25T04:31:34.253Z,62470.40
2019-04-25T04:34:00.495Z,62485.12
2019-04-25T04:36:26.791Z,62494.15
2019-04-25T04:38:54.303Z,62503.10
2019-04-25T04:41:21.230Z,62521.98
2019-04-25T04:43:47.488Z,62536.97
2019-04-25T04:46:16.731Z,62558.69
2019-04-25T04:48:43.746Z,62591.01
2019-04-25T04:51:10.545Z,62616.83
2019-04-25T04:53:38.305Z,62656.58
2019-04-25T04:56:04.559Z,62697.28
2019-04-25T04:58:30.802Z,62742.52
2019-04-25T05:00:57.057Z,62785.85
2019-04-25T05:03:44.101Z,62833.30
2019-04-25T05:11:18.265Z,62945.49
2019-04-25T05:13:44.496Z,62992.17
2019-04-25T05:16:11.189Z,63029.83
2019-04-25T05:18:40.046Z,63070.83
2019-04-25T05:21:07.046Z,63117.04
2019-04-25T05:23:34.386Z,63166.45
2019-04-25T05:26:01.451Z,63200.32
2019-04-25T05:28:27.736Z,63240.11
2019-04-25T05:33:27.879Z,63312.44
2019-04-25T05:35:54.156Z,63355.68
2019-04-25T05:38:20.427Z,63381.97
2019-04-25T05:46:09.959Z,63463.05
2019-04-25T05:48:36.223Z,63488.70
2019-04-25T05:51:23.962Z,63515.80
2019-04-25T05:53:50.430Z,63557.86
2019-04-25T05:56:16.693Z,63594.64
2019-04-25T05:58:43.914Z,63632.08
2019-04-25T06:01:11.167Z,63674.48
2019-04-25T06:03:37.469Z,63711.25
2019-04-25T06:06:03.702Z,63734.55
2019-04-25T06:19:29.203Z,63877.93
2019-04-25T06:33:13.337Z,63962.61
2019-04-25T06:35:40.691Z,63975.27
2019-04-25T06:38:26.877Z,63967.34
2019-04-25T06:40:53.628Z,63992.35
2019-04-25T06:46:14.035Z,64102.33
2019-04-25T06:51:48.868Z,64175.00
2019-04-25T06:54:15.556Z,64208.25
2019-04-25T06:56:43.421Z,64257.14
2019-04-25T06:59:10.364Z,64293.82
2019-04-25T07:01:36.625Z,64326.71
2019-04-25T07:04:04.058Z,64366.62
2019-04-25T07:12:05.688Z,64403.88
2019-04-25T07:14:33.839Z,64407.30
2019-04-25T07:17:00.518Z,64459.49
2019-04-25T07:19:28.295Z,64473.98
2019-04-25T07:21:55.920Z,64494.77
2019-04-25T07:24:22.179Z,64524.67
2019-04-25T07:27:08.532Z,64558.96
2019-04-25T07:35:18.708Z,64649.46
2019-04-25T07:37:44.960Z,64680.37
2019-04-25T07:43:05.095Z,64733.59
2019-04-25T07:45:31.353Z,64760.64
2019-04-25T07:47:57.677Z,64772.16
2019-04-25T07:50:23.963Z,64753.55
2019-04-25T07:52:50.204Z,64761.97
2019-04-25T07:55:16.571Z,64787.94
2019-04-25T07:57:44.276Z,64779.15
2019-04-25T08:00:53.913Z,64829.08
2019-04-25T08:03:20.298Z,64873.02
2019-04-25T08:05:46.582Z,64871.16
2019-04-25T08:08:13.556Z,64887.60
2019-04-25T08:11:23.658Z,64923.55
2019-04-25T08:14:10.251Z,64963.31
2019-04-25T08:16:56.369Z,64987.00
2019-04-25T08:22:23.621Z,65033.10
2019-04-25T08:24:50.121Z,65039.55
2019-04-25T08:27:16.361Z,65061.68
2019-04-25T08:29:44.855Z,65074.48
2019-04-25T08:34:40.819Z,65080.92
2019-04-25T08:37:17.537Z,65102.17
2019-04-25T08:39:38.088Z,65081.48
2019-04-25T08:42:03.536Z,65071.14
2019-04-25T08:44:29.821Z,65066.47
2019-04-25T08:46:56.099Z,65096.15
2019-04-25T08:52:09.977Z,65131.53
2019-04-25T09:01:03.895Z,65162.12
2019-04-25T09:03:50.085Z,65107.18
2019-04-25T09:06:16.559Z,65134.77
2019-04-25T09:08:45.367Z,65125.96
2019-04-25T09:11:32.383Z,65140.88
2019-04-25T09:16:45.163Z,65141.22
2019-04-25T09:19:14.255Z,65175.93
2019-04-25T09:21:45.387Z,65175.13
2019-04-25T09:24:09.354Z,65173.47
2019-04-25T09:26:36.921Z,65191.05
2019-04-25T09:29:15.978Z,65218.23
2019-04-25T09:31:34.333Z,65173.25
2019-04-25T09:34:00.251Z,65174.68
2019-04-25T09:36:26.613Z,65179.27
2019-04-25T09:41:26.994Z,65228.89
2019-04-25T09:46:47.769Z,65221.57
2019-04-25T09:49:15.905Z,65181.36
2019-04-25T09:52:03.367Z,65206.09
2019-04-25T09:57:24.026Z,65211.51
2019-04-25T09:59:50.388Z,65213.86
2019-04-25T10:02:16.696Z,65234.91
2019-04-25T10:04:45.131Z,65244.39
2019-04-25T10:07:11.110Z,65254.18
2019-04-25T10:09:37.502Z,65224.43
2019-04-25T10:12:03.866Z,65237.94
2019-04-25T10:15:09.614Z,65239.93
2019-04-25T10:17:37.589Z,65233.35
2019-04-25T10:20:46.313Z,65222.44
2019-04-25T10:23:13.607Z,65221.66
2019-04-25T10:31:05.960Z,65239.80
2019-04-25T10:33:32.249Z,65224.03
2019-04-25T10:36:00.960Z,65224.59
2019-04-25T10:39:11.021Z,65237.71
2019-04-25T10:41:36.241Z,65246.47
2019-04-25T10:44:45.717Z,65203.86
2019-04-25T10:47:25.834Z,65198.97
2019-04-25T10:49:55.219Z,65202.51
2019-04-25T10:52:20.525Z,65212.12
2019-04-25T10:54:47.886Z,65188.81
2019-04-25T10:57:14.957Z,65173.38
2019-04-25T10:59:54.580Z,65166.80
2019-04-25T11:07:17.780Z,65188.50
2019-04-25T11:09:45.580Z,65179.36
2019-04-25T11:12:25.522Z,65164.56
2019-04-25T11:14:53.299Z,65181.58
2019-04-25T11:17:20.090Z,65185.70
2019-04-25T11:19:46.823Z,65175.55
2019-04-25T11:24:44.597Z,65184.82
2019-04-25T11:27:10.981Z,65175.69
2019-04-25T11:29:37.382Z,65182.05
2019-04-25T11:34:51.538Z,65152.34
2019-04-25T11:42:47.090Z,65167.34
2019-04-25T11:45:36.323Z,65128.51
2019-04-25T11:53:55.580Z,65104.25
2019-04-25T11:56:24.180Z,65104.50
2019-04-25T12:04:05.433Z,65087.94
2019-04-25T12:06:33.456Z,65069.02
2019-04-25T12:08:59.837Z,65046.90
2019-04-25T12:14:11.947Z,65063.58
2019-04-25T12:16:38.435Z,65029.99
2019-04-25T12:19:04.853Z,64985.55
2019-04-25T12:21:31.278Z,65011.10
2019-04-25T12:23:58.050Z,65009.76
2019-04-25T12:26:26.243Z,65019.10
2019-04-25T12:28:54.733Z,65016.42
2019-04-25T12:31:20.799Z,65011.88
2019-04-25T12:33:48.665Z,65008.42
2019-04-25T12:39:35.971Z,65002.54
2019-04-25T12:42:02.214Z,65013.78
2019-04-25T12:47:44.113Z,64980.79
2019-04-25T12:52:58.151Z,64961.32
2019-04-25T12:55:44.363Z,64976.99
2019-04-25T12:58:13.557Z,64969.68
2019-04-25T13:00:47.929Z,64952.76
2019-04-25T13:03:09.822Z,64956.89
2019-04-25T13:05:36.418Z,64959.76
2019-04-25T13:13:44.420Z,64875.82
2019-04-25T13:16:10.676Z,64862.61
2019-04-25T13:19:09.180Z,64871.72
2019-04-25T13:21:24.903Z,64866.71
2019-04-25T13:23:51.148Z,64857.14
2019-04-25T13:26:19.192Z,64849.28
2019-04-25T13:29:05.293Z,64854.50
2019-04-25T13:31:51.349Z,64851.39
2019-04-25T13:36:58.159Z,64814.12
2019-04-25T13:47:49.488Z,64804.92
2019-04-25T13:50:15.764Z,64810.89
2019-04-25T13:52:43.243Z,64762.53
2019-04-25T13:55:10.413Z,64771.19
2019-04-25T13:57:37.105Z,64759.30
2019-04-25T14:02:59.498Z,64762.75
2019-04-25T14:08:14.943Z,64750.01
2019-04-25T14:27:26.744Z,64707.00
2019-04-25T14:29:53.583Z,64700.55
2019-04-25T14:32:35.188Z,64693.35
2019-04-25T14:35:24.147Z,64678.05
2019-04-25T14:40:50.678Z,64623.55
2019-04-25T14:43:17.190Z,64585.32
2019-04-25T14:45:45.671Z,64578.46
2019-04-25T14:48:11.919Z,64572.94
2019-04-25T14:50:38.190Z,64543.70
2019-04-25T14:53:04.485Z,64531.64
2019-04-25T14:55:50.481Z,64530.09
2019-04-25T15:03:26.038Z,64497.21
2019-04-25T15:05:55.293Z,64477.85
2019-04-25T15:08:21.767Z,64478.42
2019-04-25T15:10:48.525Z,64462.71
2019-04-25T15:13:15.225Z,64447.43
2019-04-25T15:15:42.029Z,64442.12
2019-04-25T15:18:08.367Z,64435.49
2019-04-25T15:20:36.714Z,64426.98
2019-04-25T15:26:31.169Z,64397.11
2019-04-25T15:28:57.506Z,64387.38
2019-04-25T15:31:55.227Z,64379.54
2019-04-25T15:42:39.972Z,64355.44
2019-04-25T15:48:34.403Z,64338.32
2019-04-25T15:51:00.697Z,64329.16
2019-04-25T15:53:27.204Z,64318.32
2019-04-25T15:56:15.092Z,64305.52
2019-04-25T15:58:41.667Z,64297.34
2019-04-25T16:04:08.166Z,64278.88
2019-04-25T16:06:34.499Z,64278.22
2019-04-25T16:14:57.339Z,64236.39
2019-04-25T16:19:58.037Z,64223.92
2019-04-25T16:22:24.612Z,64223.36
2019-04-25T16:27:39.010Z,64197.19
2019-04-25T16:32:37.086Z,64188.93
2019-04-25T16:35:23.090Z,64175.89
2019-04-25T16:37:49.348Z,64162.32
2019-04-25T16:40:15.607Z,64133.54
2019-04-25T16:42:41.898Z,64133.54
2019-04-25T16:45:28.940Z,64123.07
2019-04-25T16:47:56.274Z,64102.66
2019-04-25T16:53:10.155Z,64075.11
2019-04-25T16:55:36.697Z,64067.83
2019-04-25T16:58:05.391Z,64053.83
2019-04-25T17:05:58.269Z,64014.80
2019-04-25T17:08:44.275Z,64011.61
2019-04-25T17:17:06.945Z,63966.68
2019-04-25T17:19:52.973Z,63954.79
2019-04-25T17:24:53.574Z,63923.30
2019-04-25T17:30:48.747Z,63888.83
2019-04-25T17:38:45.626Z,63833.72
2019-04-25T17:43:51.996Z,63798.88
2019-04-25T17:48:52.309Z,63772.91
2019-04-25T17:51:18.668Z,63761.36
2019-04-25T17:53:44.926Z,63751.69
2019-04-25T17:56:11.293Z,63740.15
2019-04-25T17:58:37.540Z,63723.55
2019-04-25T18:01:03.833Z,63707.09
2019-04-25T18:03:30.082Z,63694.12
2019-04-25T18:06:16.261Z,63679.29
2019-04-25T18:11:38.099Z,63657.12
2019-04-25T18:19:36.753Z,63606.51
2019-04-25T18:25:15.496Z,63562.71
2019-04-25T18:28:01.870Z,63544.50
2019-04-25T18:30:28.553Z,63516.97
2019-04-25T18:33:14.568Z,63495.48
2019-04-25T18:36:02.414Z,63476.43
2019-04-25T18:47:17.480Z,63394.45
2019-04-25T18:52:51.106Z,63353.70
2019-04-25T18:55:37.597Z,63331.34
2019-04-25T18:58:23.652Z,63300.48
2019-04-25T19:01:09.679Z,63279.49
2019-04-25T19:03:55.723Z,63263.96
2019-04-25T19:08:56.397Z,63224.25
2019-04-25T19:11:22.660Z,63205.13
2019-04-25T19:13:49.249Z,63186.54
2019-04-25T19:16:15.522Z,63139.12
2019-04-25T19:18:44.439Z,63143.02
2019-04-25T19:21:09.930Z,63128.74
2019-04-25T19:26:10.175Z,63104.86
2019-04-25T19:28:36.640Z,63080.75
2019-04-25T19:33:53.646Z,63039.60
2019-04-25T19:36:19.901Z,63017.69
2019-04-25T19:38:46.159Z,63009.26
2019-04-25T19:41:32.290Z,62990.48
2019-04-25T19:46:52.405Z,62963.34
2019-04-25T19:49:18.657Z,62951.01
2019-04-25T19:51:45.204Z,62941.95
2019-04-25T19:54:36.044Z,62927.78
2019-04-25T19:57:02.352Z,62921.02
2019-04-25T19:59:28.603Z,62901.73
2019-04-25T20:10:57.799Z,62863.67
2019-04-25T20:13:24.117Z,62852.29
2019-04-25T20:16:10.176Z,62846.04
2019-04-25T20:18:36.663Z,62828.06
2019-04-25T20:21:03.393Z,62803.81
2019-04-25T20:23:29.971Z,62795.71
2019-04-25T20:26:38.582Z,62794.29
2019-04-25T20:29:04.856Z,62794.84
2019-04-25T20:31:52.815Z,62784.75
2019-04-25T20:34:19.115Z,62784.70
2019-04-25T20:36:45.749Z,62780.89
2019-04-25T20:39:13.545Z,62768.63
2019-04-25T20:41:39.852Z,62749.92
2019-04-25T20:44:06.315Z,62735.85
2019-04-25T20:46:32.581Z,62731.04
2019-04-25T20:49:18.571Z,62717.15
2019-04-25T20:51:44.812Z,62699.94
2019-04-25T20:54:11.063Z,62686.15
2019-04-25T20:56:37.375Z,62686.35
2019-04-25T20:59:03.642Z,62686.77
2019-04-25T21:01:30.155Z,62677.98
2019-04-25T21:03:56.409Z,62665.20
2019-04-25T21:08:57.598Z,62644.41
2019-04-25T21:11:24.984Z,62641.43
2019-04-25T21:14:11.011Z,62623.89
2019-04-25T21:16:57.041Z,62628.39
2019-04-25T21:19:43.060Z,62621.25
2019-04-25T21:22:09.323Z,62619.81
2019-04-25T21:24:35.568Z,62611.45
2019-04-25T21:27:01.839Z,62610.65
2019-04-25T21:29:28.201Z,62611.00
2019-04-25T21:31:54.689Z,62605.41
2019-04-25T21:34:26.522Z,62610.93
2019-04-25T21:36:49.102Z,62609.71
2019-04-25T21:39:35.351Z,62603.39
2019-04-25T21:42:21.402Z,62594.29
2019-04-25T21:44:47.960Z,62590.88
2019-04-25T21:47:14.213Z,62574.45
2019-04-25T21:49:42.361Z,62574.59
2019-04-25T21:52:08.604Z,62569.50
2019-04-25T21:54:35.057Z,62567.31
2019-04-25T21:57:01.842Z,62559.43
2019-04-25T21:59:29.789Z,62558.43
2019-04-25T22:02:37.352Z,62556.47
2019-04-25T22:13:16.771Z,62524.56
2019-04-25T22:15:41.939Z,62523.88
2019-04-25T22:18:08.212Z,62520.75
2019-04-25T22:20:36.194Z,62516.41
2019-04-25T22:23:02.543Z,62514.57
2019-04-25T22:25:30.721Z,62516.61
2019-04-25T22:27:58.671Z,62507.19
2019-04-25T22:30:26.029Z,62504.13
2019-04-25T22:36:00.133Z,62502.29
2019-04-25T22:38:26.771Z,62500.87
2019-04-25T22:40:53.067Z,62495.98
2019-04-25T22:43:19.550Z,62494.43
2019-04-25T22:45:46.135Z,62488.18
2019-04-25T22:48:12.436Z,62490.56
2019-04-25T22:50:38.923Z,62496.33
2019-04-25T22:53:05.284Z,62505.75
2019-04-25T22:55:33.394Z,62512.80
2019-04-25T22:57:59.679Z,62508.26
2019-04-25T23:08:25.271Z,62465.18
2019-04-25T23:10:51.557Z,62465.93
2019-04-25T23:13:17.854Z,62463.22
2019-04-25T23:15:44.120Z,62460.29
2019-04-25T23:18:11.382Z,62461.80
2019-04-25T23:20:38.959Z,62463.22
2019-04-25T23:23:05.884Z,62463.77
2019-04-25T23:25:51.935Z,62461.25
2019-04-25T23:31:12.585Z,62454.88
2019-04-25T23:33:50.809Z,62454.53
2019-04-25T23:36:17.482Z,62445.99
2019-04-25T23:38:43.760Z,62443.35
2019-04-25T23:41:10.230Z,62438.46
2019-04-25T23:43:36.598Z,62434.46
2019-04-25T23:46:02.892Z,62433.24
2019-04-25T23:48:29.468Z,62427.06
2019-04-25T23:50:55.755Z,62424.36
2019-04-25T23:53:22.024Z,62425.10
2019-04-25T23:55:48.314Z,62420.97
2019-04-25T23:58:14.678Z,62415.89
